createdAt,value
2023-02-16T00:01:35.140Z,70.52
2023-02-16T00:04:08.892Z,70.96
2023-02-16T00:06:35.738Z,71.82
2023-02-16T00:09:02.684Z,71.59
2023-02-16T00:11:52.644Z,71.85
2023-02-16T00:14:22.163Z,72.07
2023-02-16T00:16:49.583Z,72.24
2023-02-16T00:19:25.118Z,72.22
2023-02-16T00:21:53.412Z,72.79
2023-02-16T00:24:20.670Z,72.40
2023-02-16T00:26:48.135Z,72.34
2023-02-16T00:29:28.697Z,71.96
2023-02-16T00:31:56.899Z,71.67
2023-02-16T00:34:26.708Z,71.76
2023-02-16T00:36:54.676Z,71.86
2023-02-16T00:39:24.548Z,71.70
2023-02-16T00:41:54.909Z,71.77
2023-02-16T00:44:32.247Z,71.52
2023-02-16T00:47:09.606Z,71.43
2023-02-16T00:49:36.439Z,71.30
2023-02-16T00:52:09.808Z,71.18
2023-02-16T00:54:36.631Z,71.05
2023-02-16T00:57:03.561Z,71.10
2023-02-16T00:59:31.254Z,70.80
2023-02-16T01:01:58.193Z,70.47
2023-02-16T01:04:25.310Z,70.46
2023-02-16T01:07:10.593Z,70.57
2023-02-16T01:09:56.152Z,70.39
2023-02-16T01:12:23.177Z,70.50
2023-02-16T01:14:52.056Z,70.40
2023-02-16T01:17:19.013Z,70.96
2023-02-16T01:19:45.961Z,70.93
2023-02-16T01:22:16.671Z,71.19
2023-02-16T01:24:43.602Z,70.86
2023-02-16T01:27:12.945Z,71.13
2023-02-16T01:29:40.192Z,70.78
2023-02-16T01:32:10.632Z,70.81
2023-02-16T01:34:38.133Z,71.06
2023-02-16T01:37:04.997Z,71.05
2023-02-16T01:39:31.872Z,71.22
2023-02-16T01:42:08.769Z,70.94
2023-02-16T01:44:43.129Z,71.07
2023-02-16T01:47:31.948Z,71.21
2023-02-16T01:50:00.278Z,71.26
2023-02-16T01:52:33.974Z,71.10
2023-02-16T01:55:03.954Z,70.95
2023-02-16T01:57:57.866Z,71.04
2023-02-16T02:00:27.949Z,70.89
2023-02-16T02:03:19.914Z,70.86
2023-02-16T02:05:48.216Z,71.08
2023-02-16T02:08:21.750Z,70.96
2023-02-16T02:10:56.172Z,70.78
2023-02-16T02:13:35.885Z,71.07
2023-02-16T02:16:03.801Z,71.27
2023-02-16T02:18:30.889Z,71.50
2023-02-16T02:21:22.589Z,72.00
2023-02-16T02:23:52.537Z,71.75
2023-02-16T02:26:34.357Z,71.43
2023-02-16T02:29:01.290Z,71.63
2023-02-16T02:31:50.226Z,71.67
2023-02-16T02:34:26.552Z,71.64
2023-02-16T02:36:56.514Z,71.69
2023-02-16T02:39:26.462Z,71.72
2023-02-16T02:42:05.684Z,71.46
2023-02-16T02:44:49.792Z,71.56
2023-02-16T02:47:16.888Z,71.77
2023-02-16T02:49:51.346Z,71.82
2023-02-16T02:52:18.936Z,71.78
2023-02-16T02:55:04.322Z,71.85
2023-02-16T02:58:01.904Z,72.71
2023-02-16T03:00:41.111Z,72.80
2023-02-16T03:03:12.700Z,72.42
2023-02-16T03:05:41.468Z,72.43
2023-02-16T03:08:17.028Z,72.38
2023-02-16T03:11:08.416Z,72.88
2023-02-16T03:13:37.181Z,73.01
2023-02-16T03:16:09.802Z,72.63
2023-02-16T03:18:56.041Z,72.88
2023-02-16T03:21:43.515Z,73.16
2023-02-16T03:24:32.085Z,72.96
2023-02-16T03:27:17.250Z,73.17
2023-02-16T03:29:45.910Z,73.44
2023-02-16T03:32:12.860Z,73.28
2023-02-16T03:34:40.051Z,73.09
2023-02-16T03:37:07.298Z,72.79
2023-02-16T03:39:54.301Z,72.80
2023-02-16T03:42:21.977Z,73.08
2023-02-16T03:44:49.264Z,72.90
2023-02-16T03:47:16.435Z,73.33
2023-02-16T03:49:43.535Z,72.97
2023-02-16T03:52:10.489Z,72.74
2023-02-16T03:54:37.354Z,72.74
2023-02-16T03:57:04.285Z,73.41
2023-02-16T03:59:31.271Z,73.19
2023-02-16T04:01:58.900Z,73.42
2023-02-16T04:04:25.808Z,73.66
2023-02-16T04:06:52.773Z,73.93
2023-02-16T04:09:19.596Z,73.97
2023-02-16T04:12:05.307Z,74.03
2023-02-16T04:14:32.248Z,73.96
2023-02-16T04:16:59.104Z,73.97
2023-02-16T04:19:26.220Z,74.09
2023-02-16T04:21:53.138Z,73.82
2023-02-16T04:24:20.026Z,74.09
2023-02-16T04:26:48.932Z,73.78
2023-02-16T04:29:15.938Z,73.82
2023-02-16T04:31:43.261Z,73.87
2023-02-16T04:34:10.453Z,73.78
2023-02-16T04:36:37.404Z,74.07
2023-02-16T04:39:04.844Z,73.63
2023-02-16T04:41:31.841Z,73.50
2023-02-16T04:43:58.779Z,73.89
2023-02-16T04:46:25.819Z,73.52
2023-02-16T04:48:52.766Z,73.65
2023-02-16T04:51:19.770Z,73.89
2023-02-16T04:53:47.030Z,74.02
2023-02-16T04:56:14.237Z,74.77
2023-02-16T04:58:41.181Z,74.65
2023-02-16T05:01:08.473Z,74.62
2023-02-16T05:03:35.379Z,74.57
2023-02-16T05:06:02.215Z,74.41
2023-02-16T05:08:29.393Z,74.32
2023-02-16T05:11:14.797Z,74.28
2023-02-16T05:14:00.122Z,74.35
2023-02-16T05:16:26.934Z,74.31
2023-02-16T05:18:53.795Z,74.25
2023-02-16T05:21:32.745Z,74.05
2023-02-16T05:24:00.777Z,74.50
2023-02-16T05:26:28.464Z,74.38
2023-02-16T05:28:55.924Z,74.83
2023-02-16T05:31:23.457Z,74.75
2023-02-16T05:33:50.759Z,74.70
2023-02-16T05:36:17.751Z,74.99
2023-02-16T05:38:44.948Z,74.72
2023-02-16T05:41:22.795Z,74.83
2023-02-16T05:43:53.974Z,74.72
2023-02-16T05:46:22.006Z,74.87
2023-02-16T05:48:48.988Z,75.06
2023-02-16T05:51:16.071Z,75.01
2023-02-16T05:53:42.997Z,75.09
2023-02-16T05:56:10.001Z,74.97
2023-02-16T05:58:37.185Z,75.04
2023-02-16T06:01:04.603Z,74.84
2023-02-16T06:03:31.881Z,74.85
2023-02-16T06:06:00.035Z,75.08
2023-02-16T06:08:27.492Z,75.27
2023-02-16T06:10:54.922Z,75.48
2023-02-16T06:13:22.122Z,75.42
2023-02-16T06:15:51.349Z,75.28
2023-02-16T06:18:18.328Z,75.63
2023-02-16T06:20:45.637Z,75.34
2023-02-16T06:23:12.994Z,75.42
2023-02-16T06:25:44.220Z,75.04
2023-02-16T06:28:11.332Z,74.63
2023-02-16T06:30:38.190Z,75.79
2023-02-16T06:33:05.160Z,76.15
2023-02-16T06:35:32.048Z,76.06
2023-02-16T06:37:58.976Z,76.20
2023-02-16T06:40:26.093Z,75.99
2023-02-16T06:42:53.033Z,76.07
2023-02-16T06:45:19.891Z,75.96
2023-02-16T06:47:46.729Z,75.87
2023-02-16T06:50:14.077Z,75.97
2023-02-16T06:52:41.179Z,76.19
2023-02-16T06:55:08.268Z,76.14
2023-02-16T06:57:35.274Z,76.16
2023-02-16T07:00:04.152Z,76.19
2023-02-16T07:02:30.985Z,76.12
2023-02-16T07:04:57.844Z,76.01
2023-02-16T07:07:24.711Z,76.23
2023-02-16T07:09:51.698Z,76.43
2023-02-16T07:12:18.941Z,76.34
2023-02-16T07:14:45.804Z,76.36
2023-02-16T07:17:12.658Z,76.15
2023-02-16T07:19:39.498Z,76.15
2023-02-16T07:22:06.456Z,75.93
2023-02-16T07:24:33.328Z,75.57
2023-02-16T07:27:00.132Z,75.00
2023-02-16T07:29:27.025Z,74.49
2023-02-16T07:31:56.016Z,74.44
2023-02-16T07:34:23.562Z,74.44
2023-02-16T07:36:50.618Z,74.35
2023-02-16T07:39:17.545Z,74.07
2023-02-16T07:41:44.818Z,74.08
2023-02-16T07:44:15.380Z,73.84
2023-02-16T07:46:42.204Z,73.59
2023-02-16T07:49:08.976Z,73.52
2023-02-16T07:51:35.945Z,73.13
2023-02-16T07:54:02.948Z,71.39
2023-02-16T07:56:31.434Z,69.91
2023-02-16T07:58:59.515Z,69.84
2023-02-16T08:01:27.181Z,69.89
2023-02-16T08:03:54.197Z,69.97
2023-02-16T08:06:21.135Z,70.46
2023-02-16T08:08:48.047Z,70.23
2023-02-16T08:11:19.340Z,70.58
2023-02-16T08:13:46.904Z,69.17
2023-02-16T08:16:15.918Z,69.44
2023-02-16T08:18:43.015Z,68.85
2023-02-16T08:21:13.841Z,68.28
2023-02-16T08:23:42.941Z,67.92
2023-02-16T08:26:10.814Z,67.12
2023-02-16T08:28:37.823Z,67.26
2023-02-16T08:31:05.676Z,66.55
2023-02-16T08:33:33.731Z,66.33
2023-02-16T08:36:00.675Z,65.90
2023-02-16T08:38:27.648Z,65.63
2023-02-16T08:40:55.606Z,64.84
2023-02-16T08:43:22.617Z,65.39
2023-02-16T08:45:51.213Z,66.42
2023-02-16T08:48:18.349Z,65.32
2023-02-16T08:50:54.956Z,63.10
2023-02-16T08:53:22.655Z,63.15
2023-02-16T08:55:55.898Z,62.38
2023-02-16T08:58:24.195Z,62.01
2023-02-16T09:00:51.323Z,59.58
2023-02-16T09:03:19.530Z,57.13
2023-02-16T09:05:47.156Z,58.83
2023-02-16T09:08:14.017Z,55.75
2023-02-16T09:10:41.410Z,51.67
2023-02-16T09:13:14.517Z,52.03
2023-02-16T09:15:42.701Z,50.18
2023-02-16T09:18:10.243Z,44.31
2023-02-16T09:20:38.867Z,44.63
2023-02-16T09:23:06.701Z,40.61
2023-02-16T09:25:34.742Z,40.83
2023-02-16T09:28:02.037Z,39.73
2023-02-16T09:30:29.056Z,38.64
2023-02-16T09:32:56.048Z,36.67
2023-02-16T09:35:23.199Z,37.87
2023-02-16T09:37:50.357Z,38.88
2023-02-16T09:40:17.709Z,34.88
2023-02-16T09:42:44.761Z,33.72
2023-02-16T09:45:14.989Z,37.12
2023-02-16T09:47:47.058Z,35.15
2023-02-16T09:50:20.612Z,34.42
2023-02-16T09:52:57.228Z,35.50
2023-02-16T09:55:30.115Z,34.81
2023-02-16T09:58:18.868Z,32.27
2023-02-16T10:00:51.337Z,33.27
2023-02-16T10:03:24.532Z,32.80
2023-02-16T10:06:20.956Z,33.63
2023-02-16T10:08:51.191Z,32.64
2023-02-16T10:11:46.174Z,32.32
2023-02-16T10:14:18.143Z,28.73
2023-02-16T10:16:50.825Z,30.94
2023-02-16T10:19:21.252Z,33.07
2023-02-16T10:21:50.860Z,32.97
2023-02-16T10:24:18.124Z,31.76
2023-02-16T10:26:57.453Z,32.05
2023-02-16T10:29:26.404Z,29.79
2023-02-16T10:32:09.878Z,28.60
2023-02-16T10:35:04.156Z,31.36
2023-02-16T10:37:49.768Z,30.32
2023-02-16T10:40:16.802Z,30.87
2023-02-16T10:42:46.445Z,31.42
2023-02-16T10:45:13.589Z,29.21
2023-02-16T10:47:42.340Z,29.95
2023-02-16T10:50:18.813Z,31.50
2023-02-16T10:52:45.801Z,31.62
2023-02-16T10:55:12.752Z,32.15
2023-02-16T10:57:40.085Z,33.60
2023-02-16T11:00:11.947Z,30.30
2023-02-16T11:02:41.371Z,33.37
2023-02-16T11:05:28.923Z,33.82
2023-02-16T11:07:56.891Z,30.76
2023-02-16T11:10:35.887Z,31.22
2023-02-16T11:13:03.364Z,31.97
2023-02-16T11:15:30.552Z,29.60
2023-02-16T11:18:00.410Z,27.36
2023-02-16T11:20:44.473Z,27.26
2023-02-16T11:23:11.336Z,28.54
2023-02-16T11:25:38.303Z,29.34
2023-02-16T11:28:05.368Z,27.34
2023-02-16T11:30:34.610Z,29.32
2023-02-16T11:33:04.011Z,30.23
2023-02-16T11:35:32.601Z,28.00
2023-02-16T11:38:00.065Z,27.48
2023-02-16T11:40:31.517Z,27.63
2023-02-16T11:43:00.308Z,26.37
2023-02-16T11:45:32.177Z,25.20
2023-02-16T11:48:26.439Z,26.18
2023-02-16T11:50:56.669Z,26.48
2023-02-16T11:53:25.147Z,25.19
2023-02-16T11:56:08.649Z,23.97
2023-02-16T11:58:35.748Z,25.64
2023-02-16T12:01:02.850Z,25.04
2023-02-16T12:03:33.154Z,23.82
2023-02-16T12:06:06.458Z,23.48
2023-02-16T12:08:59.217Z,23.50
2023-02-16T12:11:27.583Z,23.09
2023-02-16T12:13:54.651Z,23.10
2023-02-16T12:16:40.455Z,23.74
2023-02-16T12:19:23.793Z,25.32
2023-02-16T12:21:51.637Z,22.97
2023-02-16T12:24:18.504Z,24.02
2023-02-16T12:26:51.502Z,20.61
2023-02-16T12:29:33.535Z,21.33
2023-02-16T12:32:09.766Z,19.67
2023-02-16T12:34:48.487Z,19.83
2023-02-16T12:37:24.588Z,19.06
2023-02-16T12:40:09.905Z,20.75
2023-02-16T12:42:39.778Z,18.56
2023-02-16T12:45:14.013Z,17.56
2023-02-16T12:47:44.571Z,17.83
2023-02-16T12:50:32.139Z,19.48
2023-02-16T12:52:59.047Z,20.79
2023-02-16T12:55:32.861Z,18.52
2023-02-16T12:58:03.896Z,19.61
2023-02-16T13:00:39.098Z,20.58
2023-02-16T13:03:23.661Z,19.56
2023-02-16T13:05:56.805Z,18.41
2023-02-16T13:08:26.829Z,19.10
2023-02-16T13:11:04.597Z,18.11
2023-02-16T13:13:33.793Z,20.02
2023-02-16T13:16:24.108Z,18.85
2023-02-16T13:18:56.606Z,19.53
2023-02-16T13:21:59.032Z,19.79
2023-02-16T13:24:44.920Z,19.04
2023-02-16T13:27:11.951Z,19.92
2023-02-16T13:29:59.835Z,20.55
2023-02-16T13:32:27.951Z,18.60
2023-02-16T13:35:15.526Z,18.13
2023-02-16T13:37:48.335Z,17.90
2023-02-16T13:40:15.790Z,19.85
2023-02-16T13:43:01.384Z,18.93
2023-02-16T13:45:30.387Z,20.14
2023-02-16T13:47:58.148Z,19.50
2023-02-16T13:50:27.789Z,20.29
2023-02-16T13:52:56.968Z,20.43
2023-02-16T13:55:27.017Z,21.78
2023-02-16T13:57:55.366Z,21.08
2023-02-16T14:00:28.512Z,20.96
2023-02-16T14:03:00.064Z,20.50
2023-02-16T14:05:29.014Z,20.61
2023-02-16T14:08:14.884Z,21.46
2023-02-16T14:10:54.626Z,21.93
2023-02-16T14:13:30.930Z,21.15
2023-02-16T14:16:02.490Z,21.54
2023-02-16T14:18:43.858Z,21.38
2023-02-16T14:21:36.858Z,21.36
2023-02-16T14:24:05.858Z,21.77
2023-02-16T14:26:50.669Z,21.24
2023-02-16T14:29:18.926Z,21.72
2023-02-16T14:32:00.430Z,21.51
2023-02-16T14:34:28.994Z,22.04
2023-02-16T14:37:20.389Z,22.81
2023-02-16T14:40:07.017Z,23.85
2023-02-16T14:42:35.384Z,23.33
2023-02-16T14:45:05.291Z,25.11
2023-02-16T14:47:38.843Z,25.93
2023-02-16T14:50:41.193Z,26.25
2023-02-16T14:53:28.711Z,27.66
2023-02-16T14:55:55.764Z,28.69
2023-02-16T14:58:46.147Z,29.69
2023-02-16T15:01:15.826Z,30.44
2023-02-16T15:03:44.820Z,31.55
2023-02-16T15:06:20.696Z,32.57
2023-02-16T15:09:12.907Z,33.85
2023-02-16T15:12:17.943Z,34.63
2023-02-16T15:14:56.476Z,35.35
2023-02-16T15:17:38.485Z,36.27
2023-02-16T15:20:17.769Z,37.05
2023-02-16T15:22:48.527Z,37.47
2023-02-16T15:25:27.358Z,37.87
2023-02-16T15:27:59.744Z,38.65
2023-02-16T15:30:28.119Z,39.63
2023-02-16T15:33:02.763Z,40.16
2023-02-16T15:35:29.748Z,41.60
2023-02-16T15:38:00.621Z,42.89
2023-02-16T15:40:31.273Z,43.83
2023-02-16T15:43:19.382Z,44.53
2023-02-16T15:45:54.306Z,45.28
2023-02-16T15:48:30.806Z,46.04
2023-02-16T15:51:05.124Z,46.86
2023-02-16T15:53:38.519Z,47.60
2023-02-16T15:56:16.626Z,48.39
2023-02-16T15:58:43.779Z,49.05
2023-02-16T16:01:12.217Z,49.60
2023-02-16T16:03:46.073Z,49.81
2023-02-16T16:06:13.435Z,50.52
2023-02-16T16:08:40.692Z,50.57
2023-02-16T16:11:08.462Z,50.95
2023-02-16T16:13:36.955Z,51.00
2023-02-16T16:16:06.264Z,51.37
2023-02-16T16:18:38.732Z,51.58
2023-02-16T16:21:12.951Z,51.81
2023-02-16T16:23:40.101Z,52.43
2023-02-16T16:26:19.845Z,52.61
2023-02-16T16:28:47.000Z,52.90
2023-02-16T16:31:29.582Z,53.08
2023-02-16T16:34:02.604Z,52.95
2023-02-16T16:36:31.597Z,53.38
2023-02-16T16:39:10.111Z,53.65
2023-02-16T16:41:39.625Z,53.50
2023-02-16T16:44:10.152Z,54.09
2023-02-16T16:46:37.614Z,54.28
2023-02-16T16:49:04.674Z,54.06
2023-02-16T16:51:39.095Z,53.81
2023-02-16T16:54:24.567Z,54.36
2023-02-16T16:56:52.026Z,54.60
2023-02-16T16:59:18.980Z,55.52
2023-02-16T17:01:49.451Z,55.67
2023-02-16T17:04:16.781Z,56.14
2023-02-16T17:06:43.919Z,58.40
2023-02-16T17:09:10.974Z,60.06
2023-02-16T17:11:38.334Z,59.80
2023-02-16T17:14:10.100Z,58.93
2023-02-16T17:20:48.887Z,58.58
2023-02-16T17:23:17.475Z,58.57
2023-02-16T17:25:44.935Z,60.32
2023-02-16T17:28:12.811Z,61.71
2023-02-16T17:30:40.687Z,60.23
2023-02-16T17:33:09.064Z,59.77
2023-02-16T17:35:38.778Z,61.34
2023-02-16T17:38:13.510Z,61.41
2023-02-16T17:40:41.409Z,60.98
2023-02-16T17:43:12.734Z,60.46
2023-02-16T17:45:39.921Z,60.89
2023-02-16T17:48:07.244Z,60.98
2023-02-16T17:50:34.195Z,60.75
2023-02-16T17:53:01.250Z,60.17
2023-02-16T17:55:28.204Z,60.10
2023-02-16T17:57:57.608Z,60.18
2023-02-16T18:00:24.862Z,60.11
2023-02-16T18:02:52.025Z,60.30
2023-02-16T18:05:19.174Z,60.00
2023-02-16T18:07:46.339Z,59.98
2023-02-16T18:10:20.455Z,60.64
2023-02-16T18:12:47.399Z,60.81
2023-02-16T18:15:14.566Z,61.66
2023-02-16T18:17:41.604Z,59.95
2023-02-16T18:20:09.782Z,60.29
2023-02-16T18:22:36.835Z,61.23
2023-02-16T18:25:04.096Z,60.51
2023-02-16T18:27:31.145Z,59.58
2023-02-16T18:29:58.313Z,60.43
2023-02-16T18:32:25.461Z,60.97
2023-02-16T18:34:52.520Z,62.17
2023-02-16T18:37:19.576Z,60.33
2023-02-16T18:39:46.536Z,60.67
2023-02-16T18:42:13.794Z,60.83
2023-02-16T18:44:40.934Z,61.74
2023-02-16T18:47:08.706Z,62.03
2023-02-16T18:49:35.657Z,61.72
2023-02-16T18:52:02.709Z,62.48
2023-02-16T18:54:29.869Z,63.59
2023-02-16T18:56:56.820Z,62.01
2023-02-16T18:59:23.925Z,62.15
2023-02-16T19:01:55.835Z,62.71
2023-02-16T19:04:26.309Z,63.06
2023-02-16T19:06:53.524Z,62.84
2023-02-16T19:09:21.192Z,62.56
2023-02-16T19:11:48.456Z,63.02
2023-02-16T19:14:17.546Z,63.13
2023-02-16T19:16:45.317Z,63.41
2023-02-16T19:19:12.368Z,62.81
2023-02-16T19:21:43.943Z,60.68
2023-02-16T19:24:12.010Z,64.73
2023-02-16T19:26:39.675Z,63.56
2023-02-16T19:29:06.620Z,63.40
2023-02-16T19:31:35.060Z,63.64
2023-02-16T19:34:02.679Z,64.70
2023-02-16T19:36:31.570Z,63.65
2023-02-16T19:38:58.646Z,63.79
2023-02-16T19:41:30.275Z,64.22
2023-02-16T19:43:57.337Z,64.81
2023-02-16T19:46:24.852Z,64.17
2023-02-16T19:48:53.681Z,64.05
2023-02-16T19:51:21.143Z,63.81
2023-02-16T19:53:48.419Z,63.64
2023-02-16T19:56:16.987Z,63.43
2023-02-16T19:58:44.467Z,63.32
2023-02-16T20:01:16.367Z,63.19
2023-02-16T20:03:44.185Z,63.08
2023-02-16T20:06:16.083Z,62.92
2023-02-16T20:08:43.509Z,62.73
2023-02-16T20:11:10.874Z,62.61
2023-02-16T20:13:38.232Z,62.49
2023-02-16T20:16:06.222Z,62.68
2023-02-16T20:18:34.386Z,62.69
2023-02-16T20:21:03.181Z,62.58
2023-02-16T20:23:30.647Z,62.69
2023-02-16T20:25:58.004Z,63.09
2023-02-16T20:28:25.774Z,63.90
2023-02-16T20:30:53.338Z,63.53
2023-02-16T20:33:20.721Z,63.68
2023-02-16T20:35:47.852Z,64.46
2023-02-16T20:38:14.909Z,66.24
2023-02-16T20:40:42.267Z,65.44
2023-02-16T20:43:09.530Z,65.18
2023-02-16T20:45:40.875Z,64.74
2023-02-16T20:48:08.745Z,65.33
2023-02-16T20:50:36.105Z,64.60
2023-02-16T20:53:03.687Z,64.64
2023-02-16T20:55:31.540Z,64.47
2023-02-16T20:57:59.616Z,64.01
2023-02-16T21:00:26.860Z,63.94
2023-02-16T21:02:54.144Z,63.95
2023-02-16T21:05:21.599Z,63.74
2023-02-16T21:07:49.952Z,63.41
2023-02-16T21:10:17.138Z,63.25
2023-02-16T21:12:44.493Z,63.26
2023-02-16T21:15:12.163Z,63.67
2023-02-16T21:17:39.316Z,63.18
2023-02-16T21:20:06.888Z,63.09
2023-02-16T21:22:34.447Z,62.76
2023-02-16T21:25:01.606Z,62.82
2023-02-16T21:27:28.755Z,63.07
2023-02-16T21:29:55.945Z,62.75
2023-02-16T21:32:23.068Z,63.19
2023-02-16T21:34:50.225Z,62.87
2023-02-16T21:37:18.301Z,63.03
2023-02-16T21:40:03.880Z,62.85
2023-02-16T21:42:32.974Z,63.30
2023-02-16T21:45:12.430Z,63.73
2023-02-16T21:47:59.116Z,63.22
2023-02-16T21:50:26.674Z,63.69
2023-02-16T21:52:53.940Z,63.76
2023-02-16T21:55:39.510Z,63.80
2023-02-16T21:58:07.482Z,63.63
2023-02-16T22:00:35.559Z,63.85
2023-02-16T22:03:03.124Z,64.39
2023-02-16T22:05:30.276Z,64.45
2023-02-16T22:07:58.257Z,64.17
2023-02-16T22:10:26.230Z,63.99
2023-02-16T22:12:53.791Z,64.08
2023-02-16T22:15:21.252Z,64.46
2023-02-16T22:17:50.985Z,64.44
2023-02-16T22:20:18.428Z,64.39
2023-02-16T22:22:45.486Z,64.69
2023-02-16T22:25:13.154Z,64.71
2023-02-16T22:27:40.305Z,65.14
2023-02-16T22:30:07.690Z,64.94
2023-02-16T22:32:34.823Z,64.94
2023-02-16T22:35:01.774Z,66.18
2023-02-16T22:37:28.724Z,66.30
2023-02-16T22:39:55.880Z,66.56
2023-02-16T22:42:23.146Z,66.40
2023-02-16T22:44:50.296Z,67.19
2023-02-16T22:47:17.247Z,68.02
2023-02-16T22:49:44.298Z,67.73
2023-02-16T22:52:11.256Z,66.99
2023-02-16T22:54:38.201Z,66.98
2023-02-16T22:57:06.791Z,66.90
2023-02-16T22:59:33.947Z,66.70
2023-02-16T23:02:00.956Z,66.78
2023-02-16T23:04:28.174Z,66.55
2023-02-16T23:06:55.207Z,66.65
2023-02-16T23:09:22.462Z,66.76
2023-02-16T23:11:50.026Z,66.66
2023-02-16T23:14:17.801Z,66.63
2023-02-16T23:16:46.350Z,66.37
2023-02-16T23:19:15.593Z,66.98
2023-02-16T23:21:43.155Z,66.30
2023-02-16T23:24:12.562Z,66.73
2023-02-16T23:26:40.124Z,66.14
2023-02-16T23:29:07.994Z,62.90
2023-02-16T23:31:35.916Z,65.21
2023-02-16T23:34:03.647Z,65.64
2023-02-16T23:36:31.712Z,63.63
2023-02-16T23:39:00.124Z,62.42
2023-02-16T23:41:27.148Z,65.59
2023-02-16T23:43:55.223Z,65.87
2023-02-16T23:46:22.307Z,64.04
2023-02-16T23:48:49.942Z,62.08
2023-02-16T23:51:17.405Z,64.50
2023-02-16T23:53:44.358Z,66.47
2023-02-16T23:56:13.660Z,66.61
2023-02-16T23:58:42.089Z,66.70
